createdAt,value
2018-09-09T00:00:40.846Z,93.4
2018-09-09T00:01:41.555Z,93.4
2018-09-09T00:02:42.524Z,93.7
2018-09-09T00:03:43.252Z,93.7
2018-09-09T00:04:44.021Z,93.4
2018-09-09T00:05:44.982Z,93.0
2018-09-09T00:06:45.947Z,92.5
2018-09-09T00:07:46.672Z,93.0
2018-09-09T00:08:47.397Z,92.9
2018-09-09T00:09:48.162Z,93.4
2018-09-09T00:10:49.128Z,93.2
2018-09-09T00:11:49.839Z,93.1
2018-09-09T00:12:50.557Z,93.2
2018-09-09T00:13:51.283Z,93.2
2018-09-09T00:14:52.011Z,93.6
2018-09-09T00:15:52.732Z,93.1
2018-09-09T00:16:53.450Z,93.5
2018-09-09T00:17:54.173Z,93.5
2018-09-09T00:18:54.890Z,93.1
2018-09-09T00:19:55.617Z,93.2
2018-09-09T00:20:56.323Z,93.3
2018-09-09T00:21:57.040Z,93.1
2018-09-09T00:22:57.764Z,93.2
2018-09-09T00:23:58.496Z,92.8
2018-09-09T00:24:59.224Z,92.6
2018-09-09T00:25:59.930Z,92.6
2018-09-09T00:27:00.653Z,92.7
2018-09-09T00:28:01.375Z,92.7
2018-09-09T00:29:02.106Z,92.7
2018-09-09T00:30:03.076Z,93.5
2018-09-09T00:31:04.098Z,93.3
2018-09-09T00:32:04.812Z,93.1
2018-09-09T00:33:05.529Z,92.8
2018-09-09T00:34:06.485Z,92.5
2018-09-09T00:35:07.209Z,92.6
2018-09-09T00:36:07.970Z,92.8
2018-09-09T00:37:08.696Z,92.7
2018-09-09T00:38:09.412Z,92.3
2018-09-09T00:39:10.153Z,92.5
2018-09-09T00:40:10.868Z,92.8
2018-09-09T00:41:11.596Z,92.8
2018-09-09T00:42:12.320Z,92.6
2018-09-09T00:43:13.030Z,92.5
2018-09-09T00:44:14.045Z,93.2
2018-09-09T00:45:14.761Z,92.8
2018-09-09T00:46:15.473Z,92.5
2018-09-09T00:47:16.207Z,92.4
2018-09-09T00:48:16.923Z,92.6
2018-09-09T00:49:17.948Z,92.9
2018-09-09T00:50:18.920Z,93.1
2018-09-09T00:51:19.644Z,92.8
2018-09-09T00:52:20.366Z,92.9
2018-09-09T00:53:21.092Z,92.1
2018-09-09T00:54:21.813Z,92.3
2018-09-09T00:55:22.531Z,92.3
2018-09-09T00:56:23.250Z,92.3
2018-09-09T00:57:23.964Z,92.1
2018-09-09T00:58:24.694Z,92.2
2018-09-09T00:59:25.464Z,92.2
2018-09-09T01:00:26.186Z,92.4
2018-09-09T01:01:26.902Z,91.8
2018-09-09T01:02:27.617Z,92.4
2018-09-09T01:03:28.328Z,92.4
2018-09-09T01:04:29.401Z,92.3
2018-09-09T01:05:30.117Z,92.5
2018-09-09T01:06:30.828Z,92.9
2018-09-09T01:07:31.547Z,92.1
2018-09-09T01:08:32.263Z,92.2
2018-09-09T01:09:33.034Z,92.4
2018-09-09T01:10:33.757Z,92.9
2018-09-09T01:11:34.487Z,93.0
2018-09-09T01:12:35.202Z,92.1
2018-09-09T01:13:35.917Z,92.3
2018-09-09T01:14:36.678Z,92.2
2018-09-09T01:15:37.404Z,92.4
2018-09-09T01:16:38.119Z,92.4
2018-09-09T01:17:38.846Z,92.2
2018-09-09T01:18:39.573Z,92.5
2018-09-09T01:19:40.300Z,92.4
2018-09-09T01:20:41.015Z,92.7
2018-09-09T01:21:41.982Z,92.5
2018-09-09T01:22:42.948Z,92.4
2018-09-09T01:23:43.678Z,92.4
2018-09-09T01:24:44.387Z,92.2
2018-09-09T01:25:45.096Z,92.3
2018-09-09T01:26:45.876Z,92.4
2018-09-09T01:27:46.589Z,92.0
2018-09-09T01:28:47.308Z,92.1
2018-09-09T01:29:48.019Z,91.8
2018-09-09T01:30:48.740Z,92.7
2018-09-09T01:31:49.516Z,92.7
2018-09-09T01:32:50.231Z,92.1
2018-09-09T01:33:50.947Z,92.3
2018-09-09T01:34:51.681Z,92.2
2018-09-09T01:35:52.392Z,92.7
2018-09-09T01:36:53.106Z,92.7
2018-09-09T01:37:53.884Z,92.3
2018-09-09T01:38:54.599Z,92.2
2018-09-09T01:39:55.318Z,92.1
2018-09-09T01:40:56.040Z,91.9
2018-09-09T01:41:56.764Z,92.1
2018-09-09T01:42:57.478Z,91.8
2018-09-09T01:43:58.209Z,91.8
2018-09-09T01:44:58.919Z,92.2
2018-09-09T01:45:59.685Z,91.8
2018-09-09T01:47:00.403Z,93.2
2018-09-09T01:48:01.122Z,92.3
2018-09-09T01:49:01.841Z,92.3
2018-09-09T01:50:02.560Z,92.5
2018-09-09T01:51:03.334Z,92.2
2018-09-09T01:52:04.298Z,91.6
2018-09-09T01:53:05.012Z,91.9
2018-09-09T01:54:05.748Z,92.4
2018-09-09T01:55:06.459Z,92.0
2018-09-09T01:56:07.234Z,92.1
2018-09-09T01:57:07.998Z,92.2
2018-09-09T01:58:08.672Z,92.2
2018-09-09T01:59:09.393Z,91.8
2018-09-09T02:00:10.115Z,91.8
2018-09-09T02:01:10.822Z,91.7
2018-09-09T02:02:11.551Z,92.7
2018-09-09T02:03:12.268Z,92.0
2018-09-09T02:04:13.001Z,91.9
2018-09-09T02:05:13.727Z,92.0
2018-09-09T02:06:14.443Z,92.4
2018-09-09T02:07:15.223Z,92.7
2018-09-09T02:08:15.934Z,92.4
2018-09-09T02:09:16.661Z,92.7
2018-09-09T02:10:17.370Z,92.5
2018-09-09T02:11:18.332Z,92.4
2018-09-09T02:12:19.103Z,92.2
2018-09-09T02:13:19.820Z,92.2
2018-09-09T02:14:20.548Z,92.4
2018-09-09T02:15:21.519Z,92.4
2018-09-09T02:16:22.247Z,92.3
2018-09-09T02:17:22.967Z,92.1
2018-09-09T02:18:23.680Z,92.3
2018-09-09T02:19:24.405Z,92.2
2018-09-09T02:20:25.116Z,92.2
2018-09-09T02:21:25.839Z,92.4
2018-09-09T02:22:26.568Z,92.0
2018-09-09T02:23:27.274Z,92.4
2018-09-09T02:24:28.011Z,92.3
2018-09-09T02:25:28.726Z,92.3
2018-09-09T02:26:29.697Z,92.2
2018-09-09T02:27:30.413Z,92.0
2018-09-09T02:28:31.485Z,92.4
2018-09-09T02:29:32.219Z,92.2
2018-09-09T02:30:32.932Z,92.3
2018-09-09T02:31:33.654Z,92.5
2018-09-09T02:32:34.366Z,92.7
2018-09-09T02:33:35.340Z,92.2
2018-09-09T02:34:36.057Z,92.1
2018-09-09T02:35:36.784Z,92.0
2018-09-09T02:36:37.497Z,92.3
2018-09-09T02:37:38.208Z,92.5
2018-09-09T02:38:38.924Z,92.6
2018-09-09T02:39:39.639Z,92.9
2018-09-09T02:40:40.420Z,92.2
2018-09-09T02:41:41.148Z,92.1
2018-09-09T02:42:41.866Z,91.6
2018-09-09T02:43:42.657Z,92.9
2018-09-09T02:44:43.326Z,92.7
2018-09-09T02:45:44.097Z,93.2
2018-09-09T02:46:44.814Z,92.4
2018-09-09T02:47:45.540Z,92.0
2018-09-09T02:48:46.255Z,91.6
2018-09-09T02:49:46.989Z,92.0
2018-09-09T02:50:48.002Z,92.3
2018-09-09T02:51:48.724Z,92.4
2018-09-09T02:52:49.440Z,91.9
2018-09-09T02:53:50.160Z,92.4
2018-09-09T02:54:50.895Z,91.8
2018-09-09T02:55:51.623Z,92.2
2018-09-09T02:56:52.334Z,91.6
2018-09-09T02:57:53.059Z,91.8
2018-09-09T02:58:53.781Z,92.0
2018-09-09T02:59:54.494Z,91.6
2018-09-09T03:00:55.456Z,91.6
2018-09-09T03:01:56.230Z,91.4
2018-09-09T03:02:56.952Z,91.0
2018-09-09T03:03:57.666Z,91.8
2018-09-09T03:04:58.388Z,92.1
2018-09-09T03:05:59.102Z,90.9
2018-09-09T03:06:59.862Z,91.2
2018-09-09T03:08:00.580Z,91.0
2018-09-09T03:09:01.309Z,90.6
2018-09-09T03:10:02.027Z,90.2
2018-09-09T03:11:02.745Z,90.1
2018-09-09T03:12:03.471Z,90.6
2018-09-09T03:13:04.187Z,90.4
2018-09-09T03:14:05.148Z,90.6
2018-09-09T03:15:05.858Z,90.3
2018-09-09T03:16:06.637Z,90.2
2018-09-09T03:17:07.351Z,89.7
2018-09-09T03:18:08.076Z,89.9
2018-09-09T03:19:08.796Z,89.3
2018-09-09T03:20:09.518Z,89.8
2018-09-09T03:21:10.603Z,89.8
2018-09-09T03:22:11.314Z,90.3
2018-09-09T03:23:12.031Z,90.1
2018-09-09T03:24:12.749Z,90.1
2018-09-09T03:25:13.479Z,90.2
2018-09-09T03:26:14.205Z,90.4
2018-09-09T03:27:14.928Z,90.4
2018-09-09T03:28:15.652Z,89.8
2018-09-09T03:29:16.364Z,89.7
2018-09-09T03:30:17.085Z,90.2
2018-09-09T03:31:17.803Z,89.8
2018-09-09T03:32:18.522Z,90.3
2018-09-09T03:33:19.244Z,89.8
2018-09-09T03:34:19.964Z,89.3
2018-09-09T03:35:20.691Z,89.1
2018-09-09T03:36:21.417Z,89.1
2018-09-09T03:37:22.142Z,88.9
2018-09-09T03:38:22.862Z,89.6
2018-09-09T03:39:23.597Z,89.3
2018-09-09T03:40:24.666Z,88.7
2018-09-09T03:41:25.647Z,88.8
2018-09-09T03:42:26.362Z,88.9
2018-09-09T03:43:27.080Z,88.7
2018-09-09T03:44:27.792Z,89.0
2018-09-09T03:45:28.579Z,89.1
2018-09-09T03:46:29.295Z,88.5
2018-09-09T03:47:30.016Z,89.0
2018-09-09T03:48:30.974Z,88.9
2018-09-09T03:49:31.688Z,89.1
2018-09-09T03:50:32.412Z,88.9
2018-09-09T03:51:33.124Z,89.4
2018-09-09T03:52:33.848Z,89.0
2018-09-09T03:53:34.569Z,88.4
2018-09-09T03:54:35.288Z,88.6
2018-09-09T03:55:36.053Z,88.4
2018-09-09T03:56:36.786Z,87.8
2018-09-09T03:57:37.493Z,87.9
2018-09-09T03:58:38.226Z,87.9
2018-09-09T03:59:38.956Z,87.6
2018-09-09T04:00:39.930Z,87.2
2018-09-09T04:01:41.003Z,88.1
2018-09-09T04:02:41.734Z,88.3
2018-09-09T04:03:42.450Z,87.7
2018-09-09T04:04:43.172Z,87.8
2018-09-09T04:05:43.897Z,87.9
2018-09-09T04:06:44.606Z,87.6
2018-09-09T04:07:45.321Z,87.6
2018-09-09T04:08:46.047Z,87.7
2018-09-09T04:09:46.769Z,87.3
2018-09-09T04:10:47.490Z,86.8
2018-09-09T04:11:48.214Z,87.4
2018-09-09T04:12:48.929Z,87.4
2018-09-09T04:13:49.704Z,87.4
2018-09-09T04:14:50.416Z,87.0
2018-09-09T04:15:51.383Z,87.4
2018-09-09T04:16:52.108Z,87.3
2018-09-09T04:17:52.825Z,86.7
2018-09-09T04:18:53.600Z,86.8
2018-09-09T04:19:54.323Z,87.1
2018-09-09T04:20:55.042Z,87.3
2018-09-09T04:21:55.757Z,86.6
2018-09-09T04:22:56.468Z,86.0
2018-09-09T04:23:57.192Z,86.2
2018-09-09T04:24:57.912Z,86.9
2018-09-09T04:25:58.880Z,87.2
2018-09-09T04:26:59.607Z,86.4
2018-09-09T04:28:00.326Z,86.8
2018-09-09T04:29:01.048Z,85.9
2018-09-09T04:30:01.772Z,85.6
2018-09-09T04:31:02.637Z,86.4
2018-09-09T04:32:03.207Z,86.3
2018-09-09T04:33:03.918Z,86.2
2018-09-09T04:34:04.633Z,84.9
2018-09-09T04:35:05.708Z,84.9
2018-09-09T04:36:06.687Z,84.4
2018-09-09T04:37:07.408Z,84.8
2018-09-09T04:38:08.120Z,84.8
2018-09-09T04:39:08.848Z,84.3
2018-09-09T04:40:09.615Z,84.2
2018-09-09T04:41:10.337Z,84.1
2018-09-09T04:42:11.052Z,84.5
2018-09-09T04:43:11.773Z,84.0
2018-09-09T04:44:12.494Z,84.2
2018-09-09T04:45:13.224Z,84.2
2018-09-09T04:46:14.005Z,84.8
2018-09-09T04:47:14.672Z,84.7
2018-09-09T04:48:15.389Z,84.5
2018-09-09T04:49:16.121Z,84.6
2018-09-09T04:50:16.843Z,84.1
2018-09-09T04:51:17.606Z,84.2
2018-09-09T04:52:18.328Z,83.9
2018-09-09T04:53:19.046Z,83.6
2018-09-09T04:54:19.772Z,83.6
2018-09-09T04:55:20.500Z,83.6
2018-09-09T04:56:21.278Z,83.8
2018-09-09T04:57:21.996Z,84.2
2018-09-09T04:58:22.965Z,83.6
2018-09-09T04:59:23.689Z,84.2
2018-09-09T05:00:24.392Z,84.4
2018-09-09T05:01:25.169Z,84.0
2018-09-09T05:02:25.832Z,83.9
2018-09-09T05:03:26.603Z,84.5
2018-09-09T05:04:27.327Z,85.0
2018-09-09T05:05:28.047Z,84.3
2018-09-09T05:06:28.767Z,84.7
2018-09-09T05:07:29.492Z,84.4
2018-09-09T05:08:30.223Z,83.1
2018-09-09T05:09:30.948Z,83.1
2018-09-09T05:10:31.669Z,83.7
2018-09-09T05:11:32.391Z,82.7
2018-09-09T05:12:33.111Z,82.5
2018-09-09T05:13:33.831Z,83.0
2018-09-09T05:14:34.798Z,83.1
2018-09-09T05:15:35.516Z,82.8
2018-09-09T05:16:36.243Z,82.4
2018-09-09T05:17:37.012Z,82.0
2018-09-09T05:18:37.750Z,81.6
2018-09-09T05:19:38.478Z,81.5
2018-09-09T05:20:39.210Z,81.3
2018-09-09T05:21:39.929Z,81.0
2018-09-09T05:22:40.646Z,81.1
2018-09-09T05:23:41.365Z,81.6
2018-09-09T05:24:42.094Z,81.4
2018-09-09T05:25:42.829Z,81.3
2018-09-09T05:26:43.550Z,81.1
2018-09-09T05:27:44.276Z,81.1
2018-09-09T05:28:44.993Z,81.4
2018-09-09T05:29:45.715Z,81.4
2018-09-09T05:30:46.443Z,82.5
2018-09-09T05:31:47.175Z,82.0
2018-09-09T05:32:47.888Z,82.2
2018-09-09T05:33:48.605Z,82.9
2018-09-09T05:34:49.324Z,83.9
2018-09-09T05:35:50.039Z,83.6
2018-09-09T05:36:50.769Z,83.5
2018-09-09T05:37:51.494Z,83.5
2018-09-09T05:38:52.237Z,84.6
2018-09-09T05:39:52.945Z,85.0
2018-09-09T05:40:53.666Z,86.5
2018-09-09T05:41:54.387Z,85.9
2018-09-09T05:42:55.161Z,86.6
2018-09-09T05:43:55.882Z,86.5
2018-09-09T05:44:56.605Z,89.0
2018-09-09T05:45:57.325Z,90.7
2018-09-09T05:46:58.036Z,89.0
2018-09-09T05:47:58.762Z,88.0
2018-09-09T05:48:59.486Z,88.2
2018-09-09T05:50:00.215Z,88.9
2018-09-09T05:51:00.936Z,89.8
2018-09-09T05:52:01.673Z,89.7
2018-09-09T05:53:02.384Z,92.9
2018-09-09T05:54:03.110Z,92.2
2018-09-09T05:55:03.838Z,91.9
2018-09-09T05:56:04.563Z,91.7
2018-09-09T05:57:05.286Z,91.8
2018-09-09T05:58:06.010Z,92.4
2018-09-09T05:59:06.740Z,92.3
2018-09-09T06:00:07.468Z,92.0
2018-09-09T06:01:08.208Z,93.4
2018-09-09T06:02:08.916Z,92.3
2018-09-09T06:03:09.638Z,94.8
2018-09-09T06:04:10.377Z,94.3
2018-09-09T06:05:11.096Z,93.9
2018-09-09T06:06:12.076Z,94.9
2018-09-09T06:07:13.049Z,94.0
2018-09-09T06:08:13.773Z,94.0
2018-09-09T06:09:14.495Z,93.5
2018-09-09T06:10:15.570Z,93.8
2018-09-09T06:11:16.301Z,94.0
2018-09-09T06:12:17.022Z,94.7
2018-09-09T06:13:17.756Z,94.3
2018-09-09T06:14:18.475Z,94.6
2018-09-09T06:15:19.260Z,94.0
2018-09-09T06:16:19.988Z,95.0
2018-09-09T06:17:20.727Z,94.8
2018-09-09T06:18:21.442Z,95.1
2018-09-09T06:19:22.178Z,94.6
2018-09-09T06:20:22.891Z,94.6
2018-09-09T06:21:23.862Z,94.5
2018-09-09T06:22:24.587Z,95.2
2018-09-09T06:23:25.309Z,95.1
2018-09-09T06:24:26.036Z,95.8
2018-09-09T06:25:26.757Z,94.6
2018-09-09T06:26:27.473Z,94.6
2018-09-09T06:27:28.207Z,95.1
2018-09-09T06:28:28.921Z,94.8
2018-09-09T06:29:29.658Z,94.9
2018-09-09T06:30:30.387Z,94.5
2018-09-09T06:31:31.113Z,95.2
2018-09-09T06:32:31.839Z,94.9
2018-09-09T06:33:32.572Z,94.9
2018-09-09T06:34:33.294Z,95.1
2018-09-09T06:35:34.015Z,95.0
2018-09-09T06:36:34.996Z,95.4
2018-09-09T06:37:35.718Z,95.4
2018-09-09T06:38:36.446Z,95.0
2018-09-09T06:39:37.170Z,95.5
2018-09-09T06:40:37.956Z,94.7
2018-09-09T06:41:38.688Z,94.7
2018-09-09T06:42:39.406Z,94.9
2018-09-09T06:43:40.125Z,95.1
2018-09-09T06:44:40.843Z,95.6
2018-09-09T06:45:41.965Z,94.8
2018-09-09T06:46:42.654Z,94.8
2018-09-09T06:47:43.379Z,95.5
2018-09-09T06:48:44.115Z,95.4
2018-09-09T06:49:44.838Z,95.2
2018-09-09T06:50:45.569Z,95.2
2018-09-09T06:51:46.298Z,95.0
2018-09-09T06:52:47.034Z,95.0
2018-09-09T06:53:48.014Z,94.7
2018-09-09T06:54:48.747Z,94.7
2018-09-09T06:55:49.464Z,94.7
2018-09-09T06:56:50.207Z,94.7
2018-09-09T06:57:50.980Z,94.5
2018-09-09T06:58:51.707Z,94.6
2018-09-09T06:59:52.428Z,94.2
2018-09-09T07:00:53.153Z,94.1
2018-09-09T07:01:53.880Z,93.9
2018-09-09T07:02:54.606Z,94.3
2018-09-09T07:03:55.319Z,94.5
2018-09-09T07:04:56.051Z,94.3
2018-09-09T07:05:56.792Z,93.9
2018-09-09T07:06:57.513Z,93.6
2018-09-09T07:07:58.246Z,94.2
2018-09-09T07:08:58.968Z,93.9
2018-09-09T07:09:59.698Z,94.0
2018-09-09T07:11:00.599Z,93.8
2018-09-09T07:12:01.312Z,93.5
2018-09-09T07:13:01.869Z,93.1
2018-09-09T07:14:02.587Z,93.9
2018-09-09T07:15:03.313Z,93.1
2018-09-09T07:16:04.097Z,92.9
2018-09-09T07:17:04.827Z,93.2
2018-09-09T07:18:05.553Z,93.2
2018-09-09T07:19:06.317Z,93.8
2018-09-09T07:20:07.013Z,93.8
2018-09-09T07:21:07.740Z,93.7
2018-09-09T07:22:08.482Z,93.6
2018-09-09T07:23:09.213Z,92.9
2018-09-09T07:24:09.931Z,92.7
2018-09-09T07:25:10.719Z,93.3
2018-09-09T07:26:11.448Z,92.7
2018-09-09T07:27:12.196Z,93.1
2018-09-09T07:28:12.916Z,93.0
2018-09-09T07:29:13.645Z,92.4
2018-09-09T07:30:14.713Z,91.9
2018-09-09T07:31:15.460Z,92.5
2018-09-09T07:32:16.186Z,91.2
2018-09-09T07:33:16.906Z,92.2
2018-09-09T07:34:17.689Z,91.3
2018-09-09T07:35:18.362Z,92.0
2018-09-09T07:36:19.084Z,92.0
2018-09-09T07:37:19.858Z,92.1
2018-09-09T07:38:20.547Z,92.4
2018-09-09T07:39:21.276Z,92.8
2018-09-09T07:40:22.003Z,91.4
2018-09-09T07:41:22.732Z,91.4
2018-09-09T07:42:23.455Z,92.5
2018-09-09T07:43:24.194Z,90.6
2018-09-09T07:44:24.915Z,91.3
2018-09-09T07:45:25.690Z,91.2
2018-09-09T07:46:26.447Z,89.9
2018-09-09T07:47:27.139Z,90.6
2018-09-09T07:48:27.866Z,89.3
2018-09-09T07:49:28.587Z,89.2
2018-09-09T07:50:29.378Z,88.7
2018-09-09T07:51:30.107Z,88.5
2018-09-09T07:52:30.827Z,88.4
2018-09-09T07:53:31.545Z,88.2
2018-09-09T07:54:32.276Z,86.9
2018-09-09T07:55:33.055Z,86.6
2018-09-09T07:56:33.792Z,87.3
2018-09-09T07:57:34.526Z,88.1
2018-09-09T07:58:35.262Z,87.5
2018-09-09T07:59:35.987Z,87.9
2018-09-09T08:00:36.763Z,87.5
2018-09-09T08:01:37.484Z,87.2
2018-09-09T08:02:38.214Z,87.7
2018-09-09T08:03:38.952Z,89.4
2018-09-09T08:04:39.687Z,88.0
2018-09-09T08:05:40.411Z,87.4
2018-09-09T08:06:41.188Z,84.9
2018-09-09T08:07:41.925Z,84.3
2018-09-09T08:08:42.659Z,84.2
2018-09-09T08:09:43.393Z,85.4
2018-09-09T08:10:44.128Z,84.3
2018-09-09T08:11:44.902Z,84.9
2018-09-09T08:12:45.634Z,83.7
2018-09-09T08:13:46.359Z,83.7
2018-09-09T08:14:47.103Z,82.2
2018-09-09T08:15:47.827Z,80.3
2018-09-09T08:16:48.608Z,79.3
2018-09-09T08:17:49.338Z,80.6
2018-09-09T08:18:50.065Z,81.5
2018-09-09T08:19:50.800Z,80.7
2018-09-09T08:20:51.536Z,80.1
2018-09-09T08:21:52.273Z,80.0
2018-09-09T08:22:52.998Z,80.5
2018-09-09T08:23:53.752Z,78.6
2018-09-09T08:24:54.514Z,77.3
2018-09-09T08:25:55.258Z,76.0
2018-09-09T08:26:55.974Z,76.0
2018-09-09T08:27:56.707Z,75.5
2018-09-09T08:28:57.443Z,73.2
2018-09-09T08:29:58.173Z,73.7
2018-09-09T08:30:58.910Z,72.4
2018-09-09T08:31:59.637Z,71.7
2018-09-09T08:33:00.367Z,72.1
2018-09-09T08:34:01.097Z,73.7
2018-09-09T08:35:01.821Z,73.2
2018-09-09T08:36:02.543Z,73.0
2018-09-09T08:37:03.287Z,73.0
2018-09-09T08:38:04.018Z,71.7
2018-09-09T08:39:04.766Z,72.1
2018-09-09T08:40:05.501Z,69.9
2018-09-09T08:41:06.236Z,70.7
2018-09-09T08:42:06.961Z,69.8
2018-09-09T08:43:07.702Z,68.4
2018-09-09T08:44:08.435Z,65.7
2018-09-09T08:45:09.173Z,66.0
2018-09-09T08:46:09.901Z,65.4
2018-09-09T08:47:10.885Z,65.2
2018-09-09T08:48:11.610Z,65.6
2018-09-09T08:49:12.342Z,65.2
2018-09-09T08:50:13.125Z,65.8
2018-09-09T08:51:13.851Z,66.3
2018-09-09T08:52:14.669Z,64.7
2018-09-09T08:53:15.335Z,64.4
2018-09-09T08:54:16.063Z,64.6
2018-09-09T08:55:16.855Z,65.1
2018-09-09T08:56:17.574Z,64.2
2018-09-09T08:57:18.302Z,64.5
2018-09-09T08:58:19.031Z,64.6
2018-09-09T08:59:19.760Z,64.5
2018-09-09T09:00:20.493Z,63.5
2018-09-09T09:01:21.233Z,64.6
2018-09-09T09:02:21.956Z,64.6
2018-09-09T09:03:22.707Z,62.8
2018-09-09T09:04:23.437Z,63.3
2018-09-09T09:05:24.169Z,62.8
2018-09-09T09:06:24.906Z,62.6
2018-09-09T09:07:25.653Z,63.4
2018-09-09T09:08:26.367Z,63.8
2018-09-09T09:09:27.088Z,64.6
2018-09-09T09:10:27.839Z,62.0
2018-09-09T09:11:28.560Z,62.2
2018-09-09T09:12:29.308Z,61.8
2018-09-09T09:13:30.031Z,60.0
2018-09-09T09:14:30.765Z,61.2
2018-09-09T09:15:31.493Z,60.7
2018-09-09T09:16:32.247Z,61.9
2018-09-09T09:17:33.367Z,60.4
2018-09-09T09:18:34.162Z,59.1
2018-09-09T09:19:34.830Z,60.3
2018-09-09T09:20:35.586Z,60.0
2018-09-09T09:21:36.304Z,60.1
2018-09-09T09:22:37.087Z,58.9
2018-09-09T09:23:37.912Z,58.6
2018-09-09T09:24:38.578Z,59.7
2018-09-09T09:25:39.551Z,58.7
2018-09-09T09:26:40.290Z,58.6
2018-09-09T09:27:41.364Z,58.5
2018-09-09T09:28:42.102Z,58.8
2018-09-09T09:29:42.831Z,58.8
2018-09-09T09:30:43.566Z,57.9
2018-09-09T09:31:44.301Z,56.0
2018-09-09T09:32:45.076Z,56.6
2018-09-09T09:33:45.817Z,56.6
2018-09-09T09:34:46.546Z,55.6
2018-09-09T09:35:47.527Z,56.3
2018-09-09T09:36:48.273Z,56.5
2018-09-09T09:37:49.015Z,56.0
2018-09-09T09:38:49.743Z,56.1
2018-09-09T09:39:50.455Z,55.8
2018-09-09T09:40:51.206Z,53.5
2018-09-09T09:41:51.926Z,54.1
2018-09-09T09:42:52.706Z,55.6
2018-09-09T09:43:53.433Z,55.2
2018-09-09T09:44:54.182Z,56.4
2018-09-09T09:45:54.898Z,56.1
2018-09-09T09:46:55.621Z,54.8
2018-09-09T09:47:56.703Z,54.6
2018-09-09T09:48:57.430Z,54.6
2018-09-09T09:49:58.164Z,55.2
2018-09-09T09:50:58.892Z,54.3
2018-09-09T09:51:59.640Z,54.0
2018-09-09T09:53:00.395Z,53.8
2018-09-09T09:54:01.157Z,55.5
2018-09-09T09:55:01.922Z,54.2
2018-09-09T09:56:02.639Z,55.9
2018-09-09T09:57:03.380Z,54.9
2018-09-09T09:58:04.130Z,55.4
2018-09-09T09:59:04.911Z,54.3
2018-09-09T10:00:05.640Z,54.5
2018-09-09T10:01:06.370Z,54.2
2018-09-09T10:02:07.362Z,54.6
2018-09-09T10:03:08.084Z,54.7
2018-09-09T10:04:08.816Z,54.2
2018-09-09T10:05:09.555Z,54.2
2018-09-09T10:06:10.289Z,54.3
2018-09-09T10:07:11.013Z,53.8
2018-09-09T10:08:11.746Z,52.4
2018-09-09T10:09:12.474Z,51.7
2018-09-09T10:10:13.201Z,50.8
2018-09-09T10:11:13.939Z,48.6
2018-09-09T10:12:14.675Z,49.6
2018-09-09T10:13:15.413Z,49.2
2018-09-09T10:14:16.142Z,49.1
2018-09-09T10:15:16.980Z,48.3
2018-09-09T10:16:17.660Z,47.1
2018-09-09T10:17:18.398Z,46.1
2018-09-09T10:18:19.133Z,46.5
2018-09-09T10:19:19.883Z,46.5
2018-09-09T10:20:20.664Z,47.6
2018-09-09T10:21:21.401Z,47.0
2018-09-09T10:22:22.128Z,47.3
2018-09-09T10:23:22.868Z,47.1
2018-09-09T10:24:23.603Z,48.5
2018-09-09T10:25:24.336Z,48.9
2018-09-09T10:26:25.069Z,48.8
2018-09-09T10:27:25.812Z,49.4
2018-09-09T10:28:26.564Z,48.2
2018-09-09T10:29:27.294Z,48.6
2018-09-09T10:30:28.047Z,48.2
2018-09-09T10:31:28.787Z,47.2
2018-09-09T10:32:29.525Z,46.8
2018-09-09T10:33:30.267Z,47.3
2018-09-09T10:34:30.997Z,46.4
2018-09-09T10:35:31.732Z,46.7
2018-09-09T10:36:32.458Z,46.3
2018-09-09T10:37:33.192Z,45.7
2018-09-09T10:38:33.925Z,45.0
2018-09-09T10:39:34.662Z,44.2
2018-09-09T10:40:35.402Z,43.5
2018-09-09T10:41:36.131Z,44.0
2018-09-09T10:42:36.862Z,45.0
2018-09-09T10:43:37.602Z,43.8
2018-09-09T10:44:38.333Z,44.8
2018-09-09T10:45:39.055Z,46.2
2018-09-09T10:46:39.871Z,46.5
2018-09-09T10:47:40.585Z,47.4
2018-09-09T10:48:41.578Z,46.6
2018-09-09T10:49:42.312Z,47.6
2018-09-09T10:50:43.056Z,47.6
2018-09-09T10:51:43.843Z,48.8
2018-09-09T10:52:44.586Z,50.3
2018-09-09T10:53:45.324Z,51.4
2018-09-09T10:54:46.065Z,50.6
2018-09-09T10:55:46.812Z,50.1
2018-09-09T10:56:47.537Z,49.7
2018-09-09T10:57:48.266Z,50.1
2018-09-09T10:58:49.049Z,49.9
2018-09-09T10:59:50.115Z,50.1
2018-09-09T11:00:50.921Z,49.5
2018-09-09T11:01:51.654Z,51.2
2018-09-09T11:02:53.413Z,51.6
2018-09-09T11:03:55.968Z,52.2
2018-09-09T11:04:57.158Z,51.1
2018-09-09T11:05:58.061Z,51.7
2018-09-09T11:07:00.072Z,52.3
2018-09-09T11:08:01.380Z,52.7
2018-09-09T11:09:02.581Z,52.3
2018-09-09T11:10:04.287Z,52.4
2018-09-09T11:11:05.417Z,51.3
2018-09-09T11:12:06.854Z,52.6
2018-09-09T11:13:07.597Z,54.1
2018-09-09T11:14:08.380Z,53.6
2018-09-09T11:15:09.118Z,54.1
2018-09-09T11:16:09.860Z,53.6
2018-09-09T11:17:10.597Z,52.3
2018-09-09T11:18:11.334Z,52.7
2018-09-09T11:19:12.120Z,53.2
2018-09-09T11:20:12.860Z,53.5
2018-09-09T11:21:13.605Z,53.1
2018-09-09T11:22:14.351Z,52.2
2018-09-09T11:23:15.077Z,50.3
2018-09-09T11:24:15.863Z,51.0
2018-09-09T11:25:16.596Z,52.3
2018-09-09T11:26:17.340Z,51.1
2018-09-09T11:27:18.318Z,52.3
2018-09-09T11:28:19.054Z,52.1
2018-09-09T11:29:19.792Z,51.7
2018-09-09T11:30:20.576Z,52.8
2018-09-09T11:31:21.320Z,52.5
2018-09-09T11:32:22.058Z,52.6
2018-09-09T11:33:22.798Z,52.7
2018-09-09T11:34:23.538Z,54.0
2018-09-09T11:35:24.278Z,53.9
2018-09-09T11:36:25.096Z,54.3
2018-09-09T11:37:25.786Z,53.9
2018-09-09T11:38:26.516Z,54.2
2018-09-09T11:39:27.249Z,54.4
2018-09-09T11:40:28.026Z,53.9
2018-09-09T11:41:28.774Z,53.9
2018-09-09T11:42:29.511Z,53.8
2018-09-09T11:43:30.272Z,53.9
2018-09-09T11:44:31.000Z,53.8
2018-09-09T11:45:31.754Z,53.4
2018-09-09T11:46:32.481Z,53.9
2018-09-09T11:47:33.220Z,53.8
2018-09-09T11:48:33.965Z,54.5
2018-09-09T11:49:34.978Z,54.5
2018-09-09T11:50:35.705Z,53.9
2018-09-09T11:51:36.688Z,54.1
2018-09-09T11:52:37.460Z,54.2
2018-09-09T11:53:38.196Z,53.2
2018-09-09T11:54:38.926Z,52.2
2018-09-09T11:55:39.673Z,52.2
2018-09-09T11:56:40.398Z,52.1
2018-09-09T11:57:41.200Z,52.4
2018-09-09T11:58:41.905Z,52.1
2018-09-09T11:59:42.686Z,51.8
2018-09-09T12:00:43.586Z,51.7
2018-09-09T12:01:44.363Z,51.4
2018-09-09T12:02:45.451Z,52.5
2018-09-09T12:03:46.191Z,52.3
2018-09-09T12:04:46.927Z,52.6
2018-09-09T12:05:47.661Z,52.5
2018-09-09T12:06:48.398Z,52.7
2018-09-09T12:07:49.495Z,51.9
2018-09-09T12:08:50.597Z,51.9
2018-09-09T12:09:51.350Z,51.9
2018-09-09T12:10:52.174Z,52.3
2018-09-09T12:11:52.924Z,52.3
2018-09-09T12:12:53.697Z,51.6
2018-09-09T12:13:54.433Z,51.3
2018-09-09T12:14:55.585Z,50.9
2018-09-09T12:15:56.356Z,51.0
2018-09-09T12:16:57.084Z,50.6
2018-09-09T12:17:57.830Z,50.9
2018-09-09T12:18:58.575Z,51.3
2018-09-09T12:19:59.305Z,52.2
2018-09-09T12:21:00.038Z,51.5
2018-09-09T12:22:00.767Z,50.7
2018-09-09T12:23:01.503Z,52.3
2018-09-09T12:24:02.232Z,52.7
2018-09-09T12:25:02.967Z,52.2
2018-09-09T12:26:03.705Z,51.3
2018-09-09T12:27:04.449Z,51.3
2018-09-09T12:28:05.191Z,51.9
2018-09-09T12:29:05.921Z,51.5
2018-09-09T12:30:06.657Z,52.1
2018-09-09T12:31:07.638Z,51.4
2018-09-09T12:32:08.425Z,51.4
2018-09-09T12:33:09.116Z,50.8
2018-09-09T12:34:09.851Z,51.0
2018-09-09T12:35:10.582Z,50.6
2018-09-09T12:36:11.373Z,50.9
2018-09-09T12:37:12.106Z,51.0
2018-09-09T12:38:12.838Z,51.3
2018-09-09T12:39:13.570Z,51.7
2018-09-09T12:40:14.314Z,51.3
2018-09-09T12:41:15.092Z,51.3
2018-09-09T12:42:15.831Z,51.6
2018-09-09T12:43:16.567Z,51.8
2018-09-09T12:44:17.314Z,52.2
2018-09-09T12:45:18.041Z,51.1
2018-09-09T12:46:18.826Z,51.8
2018-09-09T12:47:19.568Z,50.5
2018-09-09T12:48:20.304Z,50.2
2018-09-09T12:49:21.029Z,50.4
2018-09-09T12:50:21.766Z,50.2
2018-09-09T12:51:22.595Z,48.9
2018-09-09T12:52:23.574Z,48.9
2018-09-09T12:53:24.553Z,49.3
2018-09-09T12:54:25.324Z,49.5
2018-09-09T12:55:26.031Z,49.6
2018-09-09T12:56:26.784Z,48.6
2018-09-09T12:57:27.522Z,48.4
2018-09-09T12:58:28.549Z,48.1
2018-09-09T12:59:29.527Z,48.2
2018-09-09T13:00:30.316Z,47.6
2018-09-09T13:01:30.998Z,47.1
2018-09-09T13:02:31.741Z,48.2
2018-09-09T13:03:32.480Z,48.5
2018-09-09T13:04:33.227Z,48.6
2018-09-09T13:05:33.956Z,48.6
2018-09-09T13:06:34.711Z,48.2
2018-09-09T13:07:35.442Z,48.2
2018-09-09T13:08:36.173Z,47.8
2018-09-09T13:09:36.909Z,48.9
2018-09-09T13:10:37.653Z,49.1
2018-09-09T13:11:38.375Z,49.4
2018-09-09T13:12:39.106Z,49.5
2018-09-09T13:13:39.833Z,48.9
2018-09-09T13:14:41.190Z,49.7
2018-09-09T13:15:41.914Z,50.5
2018-09-09T13:16:42.657Z,50.8
2018-09-09T13:17:43.412Z,51.0
2018-09-09T13:18:44.262Z,51.3
2018-09-09T13:19:44.998Z,51.4
2018-09-09T13:20:45.739Z,51.5
2018-09-09T13:21:46.466Z,51.5
2018-09-09T13:22:47.250Z,52.0
2018-09-09T13:23:47.982Z,51.6
2018-09-09T13:24:48.714Z,52.7
2018-09-09T13:25:49.440Z,53.4
2018-09-09T13:26:50.232Z,54.2
2018-09-09T13:27:51.264Z,53.0
2018-09-09T13:28:51.980Z,52.4